createdAt,value
2023-07-06T00:04:25.995Z,4.80
2023-07-06T00:09:28.156Z,5.12
2023-07-06T00:14:30.325Z,5.07
2023-07-06T00:19:32.453Z,4.90
2023-07-06T00:24:34.858Z,5.03
2023-07-06T00:29:39.910Z,5.32
2023-07-06T00:34:45.314Z,4.37
2023-07-06T00:39:47.497Z,4.87
2023-07-06T00:44:53.445Z,4.45
2023-07-06T00:49:56.198Z,4.53
2023-07-06T00:55:01.363Z,4.68
2023-07-06T01:00:07.847Z,4.65
2023-07-06T01:05:12.189Z,5.20
2023-07-06T01:10:15.061Z,4.83
2023-07-06T01:15:17.847Z,4.78
2023-07-06T01:20:33.024Z,5.25
2023-07-06T01:26:06.705Z,5.40
2023-07-06T01:31:26.963Z,5.10
2023-07-06T01:36:54.845Z,4.60
2023-07-06T01:42:09.119Z,4.80
2023-07-06T01:47:11.481Z,4.68
2023-07-06T01:52:43.124Z,4.80
2023-07-06T01:58:11.964Z,4.57
2023-07-06T02:03:14.803Z,4.33
2023-07-06T02:08:18.458Z,3.40
2023-07-06T02:13:20.620Z,3.22
2023-07-06T02:18:22.808Z,3.27
2023-07-06T02:23:25.388Z,3.20
2023-07-06T02:28:28.348Z,3.15
2023-07-06T02:33:31.555Z,3.00
2023-07-06T02:38:35.208Z,3.20
2023-07-06T02:43:37.509Z,3.33
2023-07-06T02:48:41.012Z,2.83
2023-07-06T02:53:43.306Z,3.10
2023-07-06T02:58:45.388Z,2.75
2023-07-06T03:03:47.516Z,3.25
2023-07-06T03:08:49.671Z,3.00
2023-07-06T03:13:52.476Z,2.75
2023-07-06T03:18:54.611Z,2.72
2023-07-06T03:23:56.709Z,2.67
2023-07-06T03:28:58.892Z,2.70
2023-07-06T03:34:02.046Z,2.85
2023-07-06T03:39:04.318Z,2.60
2023-07-06T03:44:07.206Z,2.43
2023-07-06T03:49:11.221Z,2.78
2023-07-06T03:54:13.922Z,2.60
2023-07-06T03:59:16.010Z,2.40
2023-07-06T04:04:19.389Z,2.83
2023-07-06T04:09:21.554Z,2.80
2023-07-06T04:14:26.479Z,2.40
2023-07-06T04:19:29.970Z,2.30
2023-07-06T04:24:33.035Z,2.30
2023-07-06T04:29:35.761Z,2.80
2023-07-06T04:34:41.205Z,1.57
2023-07-06T04:39:43.635Z,1.92
2023-07-06T04:44:47.122Z,1.50
2023-07-06T04:49:49.345Z,1.73
2023-07-06T04:54:52.095Z,1.83
2023-07-06T04:59:54.316Z,2.40
2023-07-06T05:04:56.532Z,1.77
2023-07-06T05:09:58.612Z,1.70
2023-07-06T05:15:00.792Z,1.50
2023-07-06T05:20:03.280Z,1.50
2023-07-06T05:25:05.964Z,2.10
2023-07-06T05:30:08.685Z,1.73
2023-07-06T05:35:11.313Z,1.83
2023-07-06T05:40:13.468Z,2.00
2023-07-06T05:45:15.692Z,1.75
2023-07-06T05:50:17.908Z,1.85
2023-07-06T05:55:20.031Z,2.23
2023-07-06T06:00:22.318Z,2.08
2023-07-06T06:05:24.408Z,1.55
2023-07-06T06:10:26.711Z,1.90
2023-07-06T06:15:28.913Z,2.00
2023-07-06T06:20:38.001Z,1.90
2023-07-06T06:25:40.225Z,2.00
2023-07-06T06:30:43.123Z,2.13
2023-07-06T06:35:48.302Z,2.22
2023-07-06T06:40:50.772Z,2.40
2023-07-06T06:45:53.242Z,2.37
2023-07-06T06:50:57.342Z,1.95
2023-07-06T06:55:59.439Z,1.95
2023-07-06T07:01:03.578Z,2.70
2023-07-06T07:06:14.238Z,2.43
2023-07-06T07:11:24.057Z,2.00
2023-07-06T07:16:26.962Z,2.70
2023-07-06T07:21:30.236Z,2.43
2023-07-06T07:26:32.430Z,2.58
2023-07-06T07:31:34.637Z,2.37
2023-07-06T07:36:37.604Z,2.47
2023-07-06T07:41:44.226Z,2.60
2023-07-06T07:46:46.501Z,2.37
2023-07-06T07:51:48.677Z,2.13
2023-07-06T07:56:55.286Z,2.23
2023-07-06T08:01:57.553Z,2.00
2023-07-06T08:06:59.761Z,2.10
2023-07-06T08:12:04.281Z,2.00
2023-07-06T08:17:07.034Z,2.33
2023-07-06T08:22:10.367Z,1.80
2023-07-06T08:27:15.040Z,2.00
2023-07-06T08:32:20.816Z,2.10
2023-07-06T08:37:23.225Z,2.00
2023-07-06T08:42:26.309Z,2.10
2023-07-06T08:47:29.627Z,2.20
2023-07-06T08:52:32.904Z,1.90
2023-07-06T08:57:35.057Z,1.98
2023-07-06T09:02:38.149Z,1.67
2023-07-06T09:07:43.685Z,2.10
2023-07-06T09:12:46.011Z,2.15
2023-07-06T09:17:53.601Z,2.10
2023-07-06T09:22:55.876Z,1.90
2023-07-06T09:27:59.556Z,2.15
2023-07-06T09:33:08.108Z,2.10
2023-07-06T09:38:14.930Z,2.20
2023-07-06T09:43:22.495Z,2.20
2023-07-06T09:48:40.420Z,2.22
2023-07-06T09:54:00.048Z,2.00
2023-07-06T09:59:02.192Z,2.15
2023-07-06T10:04:25.694Z,2.47
2023-07-06T10:09:38.764Z,2.10
2023-07-06T10:14:45.379Z,2.10
2023-07-06T10:20:01.889Z,1.83
2023-07-06T10:25:15.861Z,2.53
2023-07-06T10:30:34.976Z,2.10
2023-07-06T10:35:46.789Z,2.50
2023-07-06T10:41:11.352Z,2.30
2023-07-06T10:46:38.652Z,1.70
2023-07-06T10:52:01.527Z,2.03
2023-07-06T10:57:11.711Z,2.33
2023-07-06T11:02:41.791Z,2.77
2023-07-06T11:07:51.774Z,2.25
2023-07-06T11:13:02.962Z,2.22
2023-07-06T11:18:20.222Z,2.20
2023-07-06T11:23:47.327Z,2.20
2023-07-06T11:28:50.408Z,2.20
2023-07-06T11:34:04.836Z,2.35
2023-07-06T11:39:23.865Z,1.97
2023-07-06T11:44:36.485Z,2.40
2023-07-06T11:49:44.715Z,1.87
2023-07-06T11:54:52.921Z,1.77
2023-07-06T12:00:22.810Z,1.77
2023-07-06T12:05:34.802Z,1.85
2023-07-06T12:10:40.278Z,4.07
2023-07-06T12:15:42.494Z,1.70
2023-07-06T12:20:44.714Z,2.05
2023-07-06T12:25:47.268Z,1.65
2023-07-06T12:30:50.315Z,2.17
2023-07-06T12:35:54.585Z,2.17
2023-07-06T12:41:20.479Z,2.10
2023-07-06T12:46:24.158Z,2.40
2023-07-06T12:51:26.742Z,1.85
2023-07-06T12:56:30.432Z,1.77
2023-07-06T13:01:44.322Z,1.60
2023-07-06T13:06:54.153Z,3.23
2023-07-06T13:12:01.183Z,1.70
2023-07-06T13:17:25.579Z,1.85
2023-07-06T13:22:28.576Z,1.40
2023-07-06T13:27:30.689Z,1.52
2023-07-06T13:32:35.835Z,1.92
2023-07-06T13:37:42.180Z,1.50
2023-07-06T13:42:47.577Z,1.52
2023-07-06T13:47:49.872Z,1.80
2023-07-06T13:52:56.867Z,2.00
2023-07-06T13:57:59.415Z,1.60
2023-07-06T14:03:01.623Z,2.35
2023-07-06T14:08:04.052Z,2.10
2023-07-06T14:13:08.103Z,1.53
2023-07-06T14:18:11.446Z,1.90
2023-07-06T14:23:16.569Z,1.75
2023-07-06T14:28:20.431Z,1.93
2023-07-06T14:33:25.466Z,1.42
2023-07-06T14:38:27.849Z,1.77
2023-07-06T14:43:34.002Z,1.90
2023-07-06T14:48:36.302Z,2.20
2023-07-06T14:53:40.239Z,2.50
2023-07-06T14:58:42.574Z,2.03
2023-07-06T15:03:45.030Z,2.37
2023-07-06T15:08:48.186Z,1.90
2023-07-06T15:13:50.406Z,1.90
2023-07-06T15:18:52.634Z,2.27
2023-07-06T15:23:55.229Z,1.92
2023-07-06T15:28:57.393Z,1.90
2023-07-06T15:33:59.530Z,1.97
2023-07-06T15:39:01.824Z,2.00
2023-07-06T15:44:04.154Z,1.98
2023-07-06T15:49:07.659Z,1.70
2023-07-06T15:54:11.277Z,2.30
2023-07-06T15:59:14.517Z,1.65
2023-07-06T16:04:17.156Z,1.87
2023-07-06T16:09:19.318Z,1.97
2023-07-06T16:14:23.779Z,2.00
2023-07-06T16:19:27.059Z,1.67
2023-07-06T16:24:29.166Z,2.17
2023-07-06T16:29:31.341Z,2.37
2023-07-06T16:34:33.461Z,2.97
2023-07-06T16:39:35.842Z,1.80
2023-07-06T16:44:37.922Z,2.85
2023-07-06T16:49:40.101Z,2.20
2023-07-06T16:54:42.260Z,1.77
2023-07-06T16:59:44.342Z,2.30
2023-07-06T17:04:46.463Z,2.10
2023-07-06T17:09:48.616Z,1.92
2023-07-06T17:14:50.826Z,1.90
2023-07-06T17:19:52.989Z,2.20
2023-07-06T17:24:55.174Z,1.80
2023-07-06T17:29:57.560Z,1.90
2023-07-06T17:34:59.662Z,1.98
2023-07-06T17:40:04.353Z,1.85
2023-07-06T17:45:07.031Z,1.60
2023-07-06T17:50:09.483Z,1.90
2023-07-06T17:55:11.629Z,2.15
2023-07-06T18:00:14.315Z,2.10
2023-07-06T18:05:17.749Z,1.90
2023-07-06T18:10:19.900Z,1.85
2023-07-06T18:15:22.116Z,2.03
2023-07-06T18:20:24.325Z,2.00
2023-07-06T18:25:27.222Z,1.73
2023-07-06T18:30:29.426Z,1.85
2023-07-06T18:35:32.048Z,1.50
2023-07-06T18:40:34.193Z,1.60
2023-07-06T18:45:42.286Z,1.55
2023-07-06T18:50:47.393Z,2.15
2023-07-06T18:55:50.227Z,2.30
2023-07-06T19:00:52.703Z,2.50
2023-07-06T19:05:54.958Z,2.03
2023-07-06T19:10:57.214Z,2.10
2023-07-06T19:16:00.874Z,1.87
2023-07-06T19:21:03.016Z,1.87
2023-07-06T19:26:05.428Z,2.00
2023-07-06T19:31:07.673Z,1.90
2023-07-06T19:36:09.937Z,1.92
2023-07-06T19:41:12.100Z,2.30
2023-07-06T19:46:20.357Z,2.00
2023-07-06T19:51:24.612Z,2.20
2023-07-06T19:56:29.834Z,2.47
2023-07-06T20:01:32.900Z,1.77
2023-07-06T20:06:35.111Z,2.00
2023-07-06T20:11:37.344Z,2.10
2023-07-06T20:16:39.515Z,2.10
2023-07-06T20:21:41.693Z,2.03
2023-07-06T20:26:45.532Z,2.22
